sensor_id;sensor_type;location;lat;lon;timestamp;temperature;humidity
6106;DHT22;3083;51.508;7.966;2024-03-02T00:00:49;7.70;99.90
6106;DHT22;3083;51.508;7.966;2024-03-02T00:03:16;7.70;99.90
6106;DHT22;3083;51.508;7.966;2024-03-02T00:05:43;7.70;99.90
6106;DHT22;3083;51.508;7.966;2024-03-02T00:08:13;7.80;99.90
6106;DHT22;3083;51.508;7.966;2024-03-02T00:10:46;7.80;99.90
6106;DHT22;3083;51.508;7.966;2024-03-02T00:13:14;7.80;99.90
6106;DHT22;3083;51.508;7.966;2024-03-02T00:15:43;7.80;99.90
6106;DHT22;3083;51.508;7.966;2024-03-02T00:18:14;7.80;99.90
6106;DHT22;3083;51.508;7.966;2024-03-02T00:20:43;7.80;99.90
6106;DHT22;3083;51.508;7.966;2024-03-02T00:23:14;7.90;99.90
6106;DHT22;3083;51.508;7.966;2024-03-02T00:25:43;7.80;99.90
6106;DHT22;3083;51.508;7.966;2024-03-02T00:28:14;7.80;99.90
6106;DHT22;3083;51.508;7.966;2024-03-02T00:30:56;7.80;99.90
6106;DHT22;3083;51.508;7.966;2024-03-02T00:33:25;7.80;99.90
6106;DHT22;3083;51.508;7.966;2024-03-02T00:35:53;7.70;99.90
6106;DHT22;3083;51.508;7.966;2024-03-02T00:38:20;7.80;99.90
6106;DHT22;3083;51.508;7.966;2024-03-02T00:40:48;7.80;99.90
6106;DHT22;3083;51.508;7.966;2024-03-02T00:43:43;7.80;99.90
6106;DHT22;3083;51.508;7.966;2024-03-02T00:46:15;7.80;99.90
6106;DHT22;3083;51.508;7.966;2024-03-02T00:48:53;7.80;99.90
6106;DHT22;3083;51.508;7.966;2024-03-02T00:51:21;7.90;99.90
6106;DHT22;3083;51.508;7.966;2024-03-02T00:53:48;7.90;99.90
6106;DHT22;3083;51.508;7.966;2024-03-02T00:56:16;7.90;99.90
6106;DHT22;3083;51.508;7.966;2024-03-02T00:58:45;7.90;99.90
6106;DHT22;3083;51.508;7.966;2024-03-02T01:01:12;7.90;99.90
6106;DHT22;3083;51.508;7.966;2024-03-02T01:03:39;7.90;99.90
6106;DHT22;3083;51.508;7.966;2024-03-02T01:06:07;7.90;99.90
6106;DHT22;3083;51.508;7.966;2024-03-02T01:08:34;7.80;99.90
6106;DHT22;3083;51.508;7.966;2024-03-02T01:11:01;7.80;99.90
6106;DHT22;3083;51.508;7.966;2024-03-02T01:13:28;7.80;99.90
6106;DHT22;3083;51.508;7.966;2024-03-02T01:15:56;7.80;99.90
6106;DHT22;3083;51.508;7.966;2024-03-02T01:18:24;7.80;99.90
6106;DHT22;3083;51.508;7.966;2024-03-02T01:20:51;7.80;99.90
6106;DHT22;3083;51.508;7.966;2024-03-02T01:23:18;7.70;99.90
6106;DHT22;3083;51.508;7.966;2024-03-02T01:25:46;7.70;99.90
6106;DHT22;3083;51.508;7.966;2024-03-02T01:28:13;7.70;99.90
6106;DHT22;3083;51.508;7.966;2024-03-02T01:30:40;7.80;99.90
6106;DHT22;3083;51.508;7.966;2024-03-02T01:33:08;7.70;99.90
6106;DHT22;3083;51.508;7.966;2024-03-02T01:35:35;7.70;99.90
6106;DHT22;3083;51.508;7.966;2024-03-02T01:38:03;7.80;99.90
6106;DHT22;3083;51.508;7.966;2024-03-02T01:40:31;7.80;99.90
6106;DHT22;3083;51.508;7.966;2024-03-02T01:42:58;7.80;99.90
6106;DHT22;3083;51.508;7.966;2024-03-02T01:45:28;7.80;99.90
6106;DHT22;3083;51.508;7.966;2024-03-02T01:47:55;7.80;99.90
6106;DHT22;3083;51.508;7.966;2024-03-02T01:50:27;7.80;99.90
6106;DHT22;3083;51.508;7.966;2024-03-02T01:52:54;7.80;99.90
6106;DHT22;3083;51.508;7.966;2024-03-02T01:55:22;7.80;99.90
6106;DHT22;3083;51.508;7.966;2024-03-02T01:57:49;7.80;99.90
6106;DHT22;3083;51.508;7.966;2024-03-02T02:00:17;7.80;99.90
6106;DHT22;3083;51.508;7.966;2024-03-02T02:02:45;7.80;99.90
6106;DHT22;3083;51.508;7.966;2024-03-02T02:05:12;7.70;99.90
6106;DHT22;3083;51.508;7.966;2024-03-02T02:07:42;7.70;99.90
6106;DHT22;3083;51.508;7.966;2024-03-02T02:10:09;7.80;99.90
6106;DHT22;3083;51.508;7.966;2024-03-02T02:12:37;7.70;99.90
6106;DHT22;3083;51.508;7.966;2024-03-02T02:15:20;7.80;99.90
6106;DHT22;3083;51.508;7.966;2024-03-02T02:17:47;7.70;99.90
6106;DHT22;3083;51.508;7.966;2024-03-02T02:20:15;7.70;99.90
6106;DHT22;3083;51.508;7.966;2024-03-02T02:22:54;7.70;99.90
6106;DHT22;3083;51.508;7.966;2024-03-02T02:25:21;7.70;99.90
6106;DHT22;3083;51.508;7.966;2024-03-02T02:27:48;7.70;99.90
6106;DHT22;3083;51.508;7.966;2024-03-02T02:30:19;7.70;99.90
6106;DHT22;3083;51.508;7.966;2024-03-02T02:32:46;7.70;99.90
6106;DHT22;3083;51.508;7.966;2024-03-02T02:35:14;7.60;99.90
6106;DHT22;3083;51.508;7.966;2024-03-02T02:37:42;7.60;99.90
6106;DHT22;3083;51.508;7.966;2024-03-02T02:40:11;7.60;99.90
6106;DHT22;3083;51.508;7.966;2024-03-02T02:42:39;7.50;99.90
6106;DHT22;3083;51.508;7.966;2024-03-02T02:45:06;7.60;99.90
6106;DHT22;3083;51.508;7.966;2024-03-02T02:47:33;7.50;99.90
6106;DHT22;3083;51.508;7.966;2024-03-02T02:50:01;7.50;99.90
6106;DHT22;3083;51.508;7.966;2024-03-02T02:52:32;7.50;99.90
6106;DHT22;3083;51.508;7.966;2024-03-02T02:55:02;7.40;99.90
6106;DHT22;3083;51.508;7.966;2024-03-02T02:57:31;7.40;99.90
6106;DHT22;3083;51.508;7.966;2024-03-02T03:00:02;7.40;99.90
6106;DHT22;3083;51.508;7.966;2024-03-02T03:02:36;7.30;99.90
6106;DHT22;3083;51.508;7.966;2024-03-02T03:05:03;7.20;99.90
6106;DHT22;3083;51.508;7.966;2024-03-02T03:07:31;7.20;99.90
6106;DHT22;3083;51.508;7.966;2024-03-02T03:09:58;7.10;99.90
6106;DHT22;3083;51.508;7.966;2024-03-02T03:12:26;7.00;99.90
6106;DHT22;3083;51.508;7.966;2024-03-02T03:14:55;7.00;99.90
6106;DHT22;3083;51.508;7.966;2024-03-02T03:17:22;6.90;99.90
6106;DHT22;3083;51.508;7.966;2024-03-02T03:19:49;6.80;99.90
6106;DHT22;3083;51.508;7.966;2024-03-02T03:22:16;6.80;99.90
6106;DHT22;3083;51.508;7.966;2024-03-02T03:24:43;6.70;99.90
6106;DHT22;3083;51.508;7.966;2024-03-02T03:27:10;6.70;99.90
6106;DHT22;3083;51.508;7.966;2024-03-02T03:29:37;6.70;99.90
6106;DHT22;3083;51.508;7.966;2024-03-02T03:32:06;6.80;99.90
6106;DHT22;3083;51.508;7.966;2024-03-02T03:34:33;6.80;99.90
6106;DHT22;3083;51.508;7.966;2024-03-02T03:37:00;6.80;99.90
6106;DHT22;3083;51.508;7.966;2024-03-02T03:39:27;6.80;99.90
6106;DHT22;3083;51.508;7.966;2024-03-02T03:41:54;6.70;99.90
6106;DHT22;3083;51.508;7.966;2024-03-02T03:44:21;6.70;99.90
6106;DHT22;3083;51.508;7.966;2024-03-02T03:46:48;6.70;99.90
6106;DHT22;3083;51.508;7.966;2024-03-02T03:49:16;6.80;99.90
6106;DHT22;3083;51.508;7.966;2024-03-02T03:51:43;6.70;99.90
6106;DHT22;3083;51.508;7.966;2024-03-02T03:54:10;6.70;99.90
6106;DHT22;3083;51.508;7.966;2024-03-02T03:56:37;6.70;99.90
6106;DHT22;3083;51.508;7.966;2024-03-02T03:59:04;6.70;99.90
6106;DHT22;3083;51.508;7.966;2024-03-02T04:01:31;6.60;99.90
6106;DHT22;3083;51.508;7.966;2024-03-02T04:03:58;6.50;99.90
6106;DHT22;3083;51.508;7.966;2024-03-02T04:06:26;6.50;99.90
6106;DHT22;3083;51.508;7.966;2024-03-02T04:08:53;6.40;99.90
6106;DHT22;3083;51.508;7.966;2024-03-02T04:11:20;6.40;99.90
6106;DHT22;3083;51.508;7.966;2024-03-02T04:13:47;6.40;99.90
6106;DHT22;3083;51.508;7.966;2024-03-02T04:16:14;6.30;99.90
6106;DHT22;3083;51.508;7.966;2024-03-02T04:18:41;6.30;99.90
6106;DHT22;3083;51.508;7.966;2024-03-02T04:21:08;6.30;99.90
6106;DHT22;3083;51.508;7.966;2024-03-02T04:23:36;6.30;99.90
6106;DHT22;3083;51.508;7.966;2024-03-02T04:26:03;6.30;99.90
6106;DHT22;3083;51.508;7.966;2024-03-02T04:28:31;6.30;99.90
6106;DHT22;3083;51.508;7.966;2024-03-02T04:30:57;6.30;99.90
6106;DHT22;3083;51.508;7.966;2024-03-02T04:33:24;6.30;99.90
6106;DHT22;3083;51.508;7.966;2024-03-02T04:35:51;6.30;99.90
6106;DHT22;3083;51.508;7.966;2024-03-02T04:38:18;6.30;99.90
6106;DHT22;3083;51.508;7.966;2024-03-02T04:40:46;6.30;99.90
6106;DHT22;3083;51.508;7.966;2024-03-02T04:43:13;6.30;99.90
6106;DHT22;3083;51.508;7.966;2024-03-02T04:45:42;6.30;99.90
6106;DHT22;3083;51.508;7.966;2024-03-02T04:48:09;6.30;99.90
6106;DHT22;3083;51.508;7.966;2024-03-02T04:50:36;6.40;99.90
6106;DHT22;3083;51.508;7.966;2024-03-02T04:53:03;6.30;99.90
6106;DHT22;3083;51.508;7.966;2024-03-02T04:55:30;6.40;99.90
6106;DHT22;3083;51.508;7.966;2024-03-02T04:58:25;6.30;99.90
6106;DHT22;3083;51.508;7.966;2024-03-02T05:00:52;6.30;99.90
6106;DHT22;3083;51.508;7.966;2024-03-02T05:03:18;6.30;99.90
6106;DHT22;3083;51.508;7.966;2024-03-02T05:05:45;6.30;99.90
6106;DHT22;3083;51.508;7.966;2024-03-02T05:08:13;6.20;99.90
6106;DHT22;3083;51.508;7.966;2024-03-02T05:10:41;6.20;99.90
6106;DHT22;3083;51.508;7.966;2024-03-02T05:13:08;6.20;99.90
6106;DHT22;3083;51.508;7.966;2024-03-02T05:15:35;6.10;99.90
6106;DHT22;3083;51.508;7.966;2024-03-02T05:18:03;6.10;99.90
6106;DHT22;3083;51.508;7.966;2024-03-02T05:20:31;6.00;99.90
6106;DHT22;3083;51.508;7.966;2024-03-02T05:22:57;6.00;99.90
6106;DHT22;3083;51.508;7.966;2024-03-02T05:25:24;6.00;99.90
6106;DHT22;3083;51.508;7.966;2024-03-02T05:27:51;5.90;99.90
6106;DHT22;3083;51.508;7.966;2024-03-02T05:30:18;5.90;99.90
6106;DHT22;3083;51.508;7.966;2024-03-02T05:32:46;5.80;99.90
6106;DHT22;3083;51.508;7.966;2024-03-02T05:35:13;5.70;99.90
6106;DHT22;3083;51.508;7.966;2024-03-02T05:37:40;5.70;99.90
6106;DHT22;3083;51.508;7.966;2024-03-02T05:40:08;5.60;99.90
6106;DHT22;3083;51.508;7.966;2024-03-02T05:42:36;5.60;99.90
6106;DHT22;3083;51.508;7.966;2024-03-02T05:45:04;5.60;99.90
6106;DHT22;3083;51.508;7.966;2024-03-02T05:47:31;5.60;99.90
6106;DHT22;3083;51.508;7.966;2024-03-02T05:50:00;5.50;99.90
6106;DHT22;3083;51.508;7.966;2024-03-02T05:52:27;5.50;99.90
6106;DHT22;3083;51.508;7.966;2024-03-02T05:54:54;5.40;99.90
6106;DHT22;3083;51.508;7.966;2024-03-02T05:57:21;5.40;99.90
6106;DHT22;3083;51.508;7.966;2024-03-02T06:00:11;5.30;99.90
6106;DHT22;3083;51.508;7.966;2024-03-02T06:02:39;5.30;99.90
6106;DHT22;3083;51.508;7.966;2024-03-02T06:05:07;5.30;99.90
6106;DHT22;3083;51.508;7.966;2024-03-02T06:07:34;5.40;99.90
6106;DHT22;3083;51.508;7.966;2024-03-02T06:10:01;5.40;99.90
6106;DHT22;3083;51.508;7.966;2024-03-02T06:12:31;5.40;99.90
6106;DHT22;3083;51.508;7.966;2024-03-02T06:14:57;5.40;99.90
6106;DHT22;3083;51.508;7.966;2024-03-02T06:17:24;5.40;99.90
6106;DHT22;3083;51.508;7.966;2024-03-02T06:19:51;5.40;99.90
6106;DHT22;3083;51.508;7.966;2024-03-02T06:22:20;5.50;99.90
6106;DHT22;3083;51.508;7.966;2024-03-02T06:24:48;5.70;99.90
6106;DHT22;3083;51.508;7.966;2024-03-02T06:27:15;5.70;99.90
6106;DHT22;3083;51.508;7.966;2024-03-02T06:29:42;5.70;99.90
6106;DHT22;3083;51.508;7.966;2024-03-02T06:32:09;5.80;99.90
6106;DHT22;3083;51.508;7.966;2024-03-02T06:34:36;5.80;99.90
6106;DHT22;3083;51.508;7.966;2024-03-02T06:37:03;5.80;99.90
6106;DHT22;3083;51.508;7.966;2024-03-02T06:39:31;5.90;99.90
6106;DHT22;3083;51.508;7.966;2024-03-02T06:41:59;5.90;99.90
6106;DHT22;3083;51.508;7.966;2024-03-02T06:44:27;6.00;99.90
6106;DHT22;3083;51.508;7.966;2024-03-02T06:46:53;6.00;99.90
6106;DHT22;3083;51.508;7.966;2024-03-02T06:49:20;6.10;99.90
6106;DHT22;3083;51.508;7.966;2024-03-02T06:51:47;6.10;99.90
6106;DHT22;3083;51.508;7.966;2024-03-02T06:54:15;6.20;99.90
6106;DHT22;3083;51.508;7.966;2024-03-02T06:56:43;6.20;99.90
6106;DHT22;3083;51.508;7.966;2024-03-02T06:59:10;6.30;99.90
6106;DHT22;3083;51.508;7.966;2024-03-02T07:01:37;6.30;99.90
6106;DHT22;3083;51.508;7.966;2024-03-02T07:04:04;6.40;99.90
6106;DHT22;3083;51.508;7.966;2024-03-02T07:06:31;6.40;99.90
6106;DHT22;3083;51.508;7.966;2024-03-02T07:08:58;6.50;99.90
6106;DHT22;3083;51.508;7.966;2024-03-02T07:11:25;6.50;99.90
6106;DHT22;3083;51.508;7.966;2024-03-02T07:13:53;6.60;99.90
6106;DHT22;3083;51.508;7.966;2024-03-02T07:16:20;6.70;99.90
6106;DHT22;3083;51.508;7.966;2024-03-02T07:18:54;6.80;99.90
6106;DHT22;3083;51.508;7.966;2024-03-02T07:21:22;7.00;99.90
6106;DHT22;3083;51.508;7.966;2024-03-02T07:23:49;7.20;99.90
6106;DHT22;3083;51.508;7.966;2024-03-02T07:26:16;7.50;99.90
6106;DHT22;3083;51.508;7.966;2024-03-02T07:28:45;7.70;99.90
6106;DHT22;3083;51.508;7.966;2024-03-02T07:31:15;8.00;99.90
6106;DHT22;3083;51.508;7.966;2024-03-02T07:33:44;8.30;99.90
6106;DHT22;3083;51.508;7.966;2024-03-02T07:36:11;8.50;99.90
6106;DHT22;3083;51.508;7.966;2024-03-02T07:38:38;8.60;99.90
6106;DHT22;3083;51.508;7.966;2024-03-02T07:41:06;8.80;99.90
6106;DHT22;3083;51.508;7.966;2024-03-02T07:43:33;8.90;99.90
6106;DHT22;3083;51.508;7.966;2024-03-02T07:46:00;9.00;99.90
6106;DHT22;3083;51.508;7.966;2024-03-02T07:48:30;9.10;99.90
6106;DHT22;3083;51.508;7.966;2024-03-02T07:50:57;9.30;99.90
6106;DHT22;3083;51.508;7.966;2024-03-02T07:53:24;9.40;99.90
6106;DHT22;3083;51.508;7.966;2024-03-02T07:55:51;9.60;99.90
6106;DHT22;3083;51.508;7.966;2024-03-02T07:58:18;9.70;99.90
6106;DHT22;3083;51.508;7.966;2024-03-02T08:00:45;9.90;99.90
6106;DHT22;3083;51.508;7.966;2024-03-02T08:03:13;10.10;99.90
6106;DHT22;3083;51.508;7.966;2024-03-02T08:05:41;10.30;99.90
6106;DHT22;3083;51.508;7.966;2024-03-02T08:08:08;10.60;99.90
6106;DHT22;3083;51.508;7.966;2024-03-02T08:10:37;10.70;99.90
6106;DHT22;3083;51.508;7.966;2024-03-02T08:13:04;10.90;99.90
6106;DHT22;3083;51.508;7.966;2024-03-02T08:15:31;11.10;99.90
6106;DHT22;3083;51.508;7.966;2024-03-02T08:17:58;11.30;99.90
6106;DHT22;3083;51.508;7.966;2024-03-02T08:20:26;11.30;99.90
6106;DHT22;3083;51.508;7.966;2024-03-02T08:22:54;11.30;99.90
6106;DHT22;3083;51.508;7.966;2024-03-02T08:25:21;11.20;99.90
6106;DHT22;3083;51.508;7.966;2024-03-02T08:27:49;11.20;99.90
6106;DHT22;3083;51.508;7.966;2024-03-02T08:30:16;11.10;99.90
6106;DHT22;3083;51.508;7.966;2024-03-02T08:32:43;11.10;99.90
6106;DHT22;3083;51.508;7.966;2024-03-02T08:35:10;11.00;99.90
6106;DHT22;3083;51.508;7.966;2024-03-02T08:37:39;11.00;99.90
6106;DHT22;3083;51.508;7.966;2024-03-02T08:40:11;11.00;99.90
6106;DHT22;3083;51.508;7.966;2024-03-02T08:42:38;11.00;99.90
6106;DHT22;3083;51.508;7.966;2024-03-02T08:45:06;10.90;99.90
6106;DHT22;3083;51.508;7.966;2024-03-02T08:47:33;10.80;99.90
6106;DHT22;3083;51.508;7.966;2024-03-02T08:50:02;10.80;99.90
6106;DHT22;3083;51.508;7.966;2024-03-02T08:52:30;10.80;99.90
6106;DHT22;3083;51.508;7.966;2024-03-02T08:54:57;10.90;99.90
6106;DHT22;3083;51.508;7.966;2024-03-02T08:57:25;10.90;99.90
6106;DHT22;3083;51.508;7.966;2024-03-02T08:59:53;10.90;99.90
6106;DHT22;3083;51.508;7.966;2024-03-02T09:02:20;10.90;99.90
6106;DHT22;3083;51.508;7.966;2024-03-02T09:04:47;10.90;99.90
6106;DHT22;3083;51.508;7.966;2024-03-02T09:07:14;11.10;99.90
6106;DHT22;3083;51.508;7.966;2024-03-02T09:09:41;11.30;99.90
6106;DHT22;3083;51.508;7.966;2024-03-02T09:12:08;11.60;99.90
6106;DHT22;3083;51.508;7.966;2024-03-02T09:14:36;11.80;99.90
6106;DHT22;3083;51.508;7.966;2024-03-02T09:17:04;11.90;99.90
6106;DHT22;3083;51.508;7.966;2024-03-02T09:19:31;11.90;99.90
6106;DHT22;3083;51.508;7.966;2024-03-02T09:21:58;12.00;99.90
6106;DHT22;3083;51.508;7.966;2024-03-02T09:24:28;12.10;99.90
6106;DHT22;3083;51.508;7.966;2024-03-02T09:26:55;12.10;99.90
6106;DHT22;3083;51.508;7.966;2024-03-02T09:29:22;12.10;99.90
6106;DHT22;3083;51.508;7.966;2024-03-02T09:31:51;12.20;99.90
6106;DHT22;3083;51.508;7.966;2024-03-02T09:34:18;12.30;99.90
6106;DHT22;3083;51.508;7.966;2024-03-02T09:36:45;12.40;99.90
6106;DHT22;3083;51.508;7.966;2024-03-02T09:39:12;12.50;99.90
6106;DHT22;3083;51.508;7.966;2024-03-02T09:41:39;12.50;99.90
6106;DHT22;3083;51.508;7.966;2024-03-02T09:44:07;12.50;99.90
6106;DHT22;3083;51.508;7.966;2024-03-02T09:46:34;12.40;99.90
6106;DHT22;3083;51.508;7.966;2024-03-02T09:49:03;12.40;99.90
6106;DHT22;3083;51.508;7.966;2024-03-02T09:51:31;12.40;99.90
6106;DHT22;3083;51.508;7.966;2024-03-02T09:54:01;12.40;99.90
6106;DHT22;3083;51.508;7.966;2024-03-02T09:56:28;12.50;99.90
6106;DHT22;3083;51.508;7.966;2024-03-02T09:58:55;12.60;99.90
6106;DHT22;3083;51.508;7.966;2024-03-02T10:01:21;12.80;99.90
6106;DHT22;3083;51.508;7.966;2024-03-02T10:03:49;12.90;99.90
6106;DHT22;3083;51.508;7.966;2024-03-02T10:06:22;13.00;99.90
6106;DHT22;3083;51.508;7.966;2024-03-02T10:08:49;13.00;99.90
6106;DHT22;3083;51.508;7.966;2024-03-02T10:11:35;13.20;99.90
6106;DHT22;3083;51.508;7.966;2024-03-02T10:14:05;13.40;99.90
6106;DHT22;3083;51.508;7.966;2024-03-02T10:16:35;13.40;99.90
6106;DHT22;3083;51.508;7.966;2024-03-02T10:19:18;13.50;99.90
6106;DHT22;3083;51.508;7.966;2024-03-02T10:21:47;13.50;99.90
6106;DHT22;3083;51.508;7.966;2024-03-02T10:24:14;13.60;99.90
6106;DHT22;3083;51.508;7.966;2024-03-02T10:26:41;13.70;99.90
6106;DHT22;3083;51.508;7.966;2024-03-02T10:29:09;13.80;99.90
6106;DHT22;3083;51.508;7.966;2024-03-02T10:31:37;13.90;99.90
6106;DHT22;3083;51.508;7.966;2024-03-02T10:34:04;14.00;99.90
6106;DHT22;3083;51.508;7.966;2024-03-02T10:36:32;14.00;99.90
6106;DHT22;3083;51.508;7.966;2024-03-02T10:39:02;14.10;99.90
6106;DHT22;3083;51.508;7.966;2024-03-02T10:41:32;14.20;99.90
6106;DHT22;3083;51.508;7.966;2024-03-02T10:43:59;14.30;99.90
6106;DHT22;3083;51.508;7.966;2024-03-02T10:46:29;14.40;99.90
6106;DHT22;3083;51.508;7.966;2024-03-02T10:48:56;14.40;99.90
6106;DHT22;3083;51.508;7.966;2024-03-02T10:51:24;14.50;99.90
6106;DHT22;3083;51.508;7.966;2024-03-02T10:53:53;14.50;99.90
6106;DHT22;3083;51.508;7.966;2024-03-02T10:56:28;14.40;99.90
6106;DHT22;3083;51.508;7.966;2024-03-02T10:59:01;14.20;99.90
6106;DHT22;3083;51.508;7.966;2024-03-02T11:01:29;14.10;99.90
6106;DHT22;3083;51.508;7.966;2024-03-02T11:03:58;14.10;99.90
6106;DHT22;3083;51.508;7.966;2024-03-02T11:06:28;14.20;99.90
6106;DHT22;3083;51.508;7.966;2024-03-02T11:09:00;14.30;99.90
6106;DHT22;3083;51.508;7.966;2024-03-02T11:11:37;14.30;99.90
6106;DHT22;3083;51.508;7.966;2024-03-02T11:14:07;14.30;99.90
6106;DHT22;3083;51.508;7.966;2024-03-02T11:16:38;14.20;99.90
6106;DHT22;3083;51.508;7.966;2024-03-02T11:19:08;14.20;99.90
6106;DHT22;3083;51.508;7.966;2024-03-02T11:21:37;14.10;99.90
6106;DHT22;3083;51.508;7.966;2024-03-02T11:24:32;14.10;99.90
6106;DHT22;3083;51.508;7.966;2024-03-02T11:27:01;14.10;99.90
6106;DHT22;3083;51.508;7.966;2024-03-02T11:29:44;14.10;99.90
6106;DHT22;3083;51.508;7.966;2024-03-02T11:32:20;14.10;99.90
6106;DHT22;3083;51.508;7.966;2024-03-02T11:34:48;14.10;99.90
6106;DHT22;3083;51.508;7.966;2024-03-02T11:37:16;14.10;99.90
6106;DHT22;3083;51.508;7.966;2024-03-02T11:39:44;14.20;99.90
6106;DHT22;3083;51.508;7.966;2024-03-02T11:42:14;14.20;99.90
6106;DHT22;3083;51.508;7.966;2024-03-02T11:44:43;14.30;99.90
6106;DHT22;3083;51.508;7.966;2024-03-02T11:47:14;14.40;99.90
6106;DHT22;3083;51.508;7.966;2024-03-02T11:49:43;14.50;99.90
6106;DHT22;3083;51.508;7.966;2024-03-02T11:52:11;14.60;99.90
6106;DHT22;3083;51.508;7.966;2024-03-02T11:54:40;14.60;99.90
6106;DHT22;3083;51.508;7.966;2024-03-02T11:57:14;14.70;99.90
6106;DHT22;3083;51.508;7.966;2024-03-02T11:59:42;14.80;99.90
6106;DHT22;3083;51.508;7.966;2024-03-02T12:02:15;14.80;99.90
6106;DHT22;3083;51.508;7.966;2024-03-02T12:04:42;14.80;99.90
6106;DHT22;3083;51.508;7.966;2024-03-02T12:07:10;14.90;99.90
6106;DHT22;3083;51.508;7.966;2024-03-02T12:09:40;14.90;99.90
6106;DHT22;3083;51.508;7.966;2024-03-02T12:12:08;14.90;99.90
6106;DHT22;3083;51.508;7.966;2024-03-02T12:14:37;14.90;99.90
6106;DHT22;3083;51.508;7.966;2024-03-02T12:17:05;14.80;99.90
6106;DHT22;3083;51.508;7.966;2024-03-02T12:19:33;14.80;99.90
6106;DHT22;3083;51.508;7.966;2024-03-02T12:22:00;14.70;99.90
6106;DHT22;3083;51.508;7.966;2024-03-02T12:24:28;14.80;99.90
6106;DHT22;3083;51.508;7.966;2024-03-02T12:26:56;14.80;99.90
6106;DHT22;3083;51.508;7.966;2024-03-02T12:29:24;14.90;99.90
6106;DHT22;3083;51.508;7.966;2024-03-02T12:31:53;14.90;99.90
6106;DHT22;3083;51.508;7.966;2024-03-02T12:34:20;14.90;99.90
6106;DHT22;3083;51.508;7.966;2024-03-02T12:36:50;14.90;99.90
6106;DHT22;3083;51.508;7.966;2024-03-02T12:39:19;14.90;99.90
6106;DHT22;3083;51.508;7.966;2024-03-02T12:41:46;15.00;99.90
6106;DHT22;3083;51.508;7.966;2024-03-02T12:44:16;14.90;99.90
6106;DHT22;3083;51.508;7.966;2024-03-02T12:46:43;14.90;99.90
6106;DHT22;3083;51.508;7.966;2024-03-02T12:49:12;14.90;99.90
6106;DHT22;3083;51.508;7.966;2024-03-02T12:51:42;14.90;99.90
6106;DHT22;3083;51.508;7.966;2024-03-02T12:54:10;15.00;99.90
6106;DHT22;3083;51.508;7.966;2024-03-02T12:56:38;15.00;99.90
6106;DHT22;3083;51.508;7.966;2024-03-02T12:59:05;14.90;99.90
6106;DHT22;3083;51.508;7.966;2024-03-02T13:01:32;14.90;99.90
6106;DHT22;3083;51.508;7.966;2024-03-02T13:04:00;15.00;99.90
6106;DHT22;3083;51.508;7.966;2024-03-02T13:06:28;15.10;99.90
6106;DHT22;3083;51.508;7.966;2024-03-02T13:08:55;15.10;99.90
6106;DHT22;3083;51.508;7.966;2024-03-02T13:11:23;15.20;99.90
6106;DHT22;3083;51.508;7.966;2024-03-02T13:13:51;15.30;99.90
6106;DHT22;3083;51.508;7.966;2024-03-02T13:16:18;15.30;99.90
6106;DHT22;3083;51.508;7.966;2024-03-02T13:18:46;15.20;99.90
6106;DHT22;3083;51.508;7.966;2024-03-02T13:21:13;15.00;99.90
6106;DHT22;3083;51.508;7.966;2024-03-02T13:23:42;14.90;99.90
6106;DHT22;3083;51.508;7.966;2024-03-02T13:26:09;14.80;99.90
6106;DHT22;3083;51.508;7.966;2024-03-02T13:28:38;14.80;99.90
6106;DHT22;3083;51.508;7.966;2024-03-02T13:31:05;14.80;99.90
6106;DHT22;3083;51.508;7.966;2024-03-02T13:33:32;14.90;99.90
6106;DHT22;3083;51.508;7.966;2024-03-02T13:35:59;14.80;99.90
6106;DHT22;3083;51.508;7.966;2024-03-02T13:38:27;14.80;99.90
6106;DHT22;3083;51.508;7.966;2024-03-02T13:40:55;14.70;99.90
6106;DHT22;3083;51.508;7.966;2024-03-02T13:43:22;14.60;99.90
6106;DHT22;3083;51.508;7.966;2024-03-02T13:45:50;14.50;99.90
6106;DHT22;3083;51.508;7.966;2024-03-02T13:48:19;14.40;99.90
6106;DHT22;3083;51.508;7.966;2024-03-02T13:50:46;14.30;99.90
6106;DHT22;3083;51.508;7.966;2024-03-02T13:53:13;14.20;99.90
6106;DHT22;3083;51.508;7.966;2024-03-02T13:55:40;14.20;99.90
6106;DHT22;3083;51.508;7.966;2024-03-02T13:58:10;14.20;99.90
6106;DHT22;3083;51.508;7.966;2024-03-02T14:00:37;14.30;99.90
6106;DHT22;3083;51.508;7.966;2024-03-02T14:03:06;14.20;99.90
6106;DHT22;3083;51.508;7.966;2024-03-02T14:05:33;14.20;99.90
6106;DHT22;3083;51.508;7.966;2024-03-02T14:08:00;14.20;99.90
6106;DHT22;3083;51.508;7.966;2024-03-02T14:10:27;14.10;99.90
6106;DHT22;3083;51.508;7.966;2024-03-02T14:12:54;14.00;99.90
6106;DHT22;3083;51.508;7.966;2024-03-02T14:15:23;13.90;99.90
6106;DHT22;3083;51.508;7.966;2024-03-02T14:17:50;13.90;99.90
6106;DHT22;3083;51.508;7.966;2024-03-02T14:20:17;13.90;99.90
6106;DHT22;3083;51.508;7.966;2024-03-02T14:22:48;13.90;99.90
6106;DHT22;3083;51.508;7.966;2024-03-02T14:25:17;13.90;99.90
6106;DHT22;3083;51.508;7.966;2024-03-02T14:27:44;13.90;99.90
6106;DHT22;3083;51.508;7.966;2024-03-02T14:30:14;13.80;99.90
6106;DHT22;3083;51.508;7.966;2024-03-02T14:32:42;13.80;99.90
6106;DHT22;3083;51.508;7.966;2024-03-02T14:35:09;13.70;99.90
6106;DHT22;3083;51.508;7.966;2024-03-02T14:37:37;13.70;99.90
6106;DHT22;3083;51.508;7.966;2024-03-02T14:40:05;13.60;99.90
6106;DHT22;3083;51.508;7.966;2024-03-02T14:42:32;13.60;99.90
6106;DHT22;3083;51.508;7.966;2024-03-02T14:44:59;13.60;99.90
6106;DHT22;3083;51.508;7.966;2024-03-02T14:47:28;13.60;99.90
6106;DHT22;3083;51.508;7.966;2024-03-02T14:49:56;13.50;99.90
6106;DHT22;3083;51.508;7.966;2024-03-02T14:52:23;13.60;99.90
6106;DHT22;3083;51.508;7.966;2024-03-02T14:54:50;13.50;99.90
6106;DHT22;3083;51.508;7.966;2024-03-02T14:57:17;13.50;99.90
6106;DHT22;3083;51.508;7.966;2024-03-02T14:59:44;13.50;99.90
6106;DHT22;3083;51.508;7.966;2024-03-02T15:02:11;13.40;99.90
6106;DHT22;3083;51.508;7.966;2024-03-02T15:04:38;13.40;99.90
6106;DHT22;3083;51.508;7.966;2024-03-02T15:07:06;13.30;99.90
6106;DHT22;3083;51.508;7.966;2024-03-02T15:09:33;13.30;99.90
6106;DHT22;3083;51.508;7.966;2024-03-02T15:12:01;13.30;99.90
6106;DHT22;3083;51.508;7.966;2024-03-02T15:14:28;13.20;99.90
6106;DHT22;3083;51.508;7.966;2024-03-02T15:16:55;13.30;99.90
6106;DHT22;3083;51.508;7.966;2024-03-02T15:19:22;13.20;99.90
6106;DHT22;3083;51.508;7.966;2024-03-02T15:21:49;13.20;99.90
6106;DHT22;3083;51.508;7.966;2024-03-02T15:24:18;13.20;99.90
6106;DHT22;3083;51.508;7.966;2024-03-02T15:26:45;13.20;99.90
6106;DHT22;3083;51.508;7.966;2024-03-02T15:29:12;13.20;99.90
6106;DHT22;3083;51.508;7.966;2024-03-02T15:31:39;13.20;99.90
6106;DHT22;3083;51.508;7.966;2024-03-02T15:34:05;13.20;99.90
6106;DHT22;3083;51.508;7.966;2024-03-02T15:36:33;13.20;99.90
6106;DHT22;3083;51.508;7.966;2024-03-02T15:39:01;13.20;99.90
6106;DHT22;3083;51.508;7.966;2024-03-02T15:41:35;13.20;99.90
6106;DHT22;3083;51.508;7.966;2024-03-02T15:44:02;13.20;99.90
6106;DHT22;3083;51.508;7.966;2024-03-02T15:46:29;13.20;99.90
6106;DHT22;3083;51.508;7.966;2024-03-02T15:48:56;13.20;99.90
6106;DHT22;3083;51.508;7.966;2024-03-02T15:51:23;13.10;99.90
6106;DHT22;3083;51.508;7.966;2024-03-02T15:53:50;13.20;99.90
6106;DHT22;3083;51.508;7.966;2024-03-02T15:56:17;13.20;99.90
6106;DHT22;3083;51.508;7.966;2024-03-02T15:58:46;13.10;99.90
6106;DHT22;3083;51.508;7.966;2024-03-02T16:01:14;13.10;99.90
6106;DHT22;3083;51.508;7.966;2024-03-02T16:03:41;13.10;99.90
6106;DHT22;3083;51.508;7.966;2024-03-02T16:06:08;13.10;99.90
6106;DHT22;3083;51.508;7.966;2024-03-02T16:08:34;13.00;99.90
6106;DHT22;3083;51.508;7.966;2024-03-02T16:11:02;13.00;99.90
6106;DHT22;3083;51.508;7.966;2024-03-02T16:13:29;12.90;99.90
6106;DHT22;3083;51.508;7.966;2024-03-02T16:15:59;12.80;99.90